createdAt,value
2018-10-16T00:00:18.606Z,0
2018-10-16T00:01:03.740Z,0
2018-10-16T00:02:03.844Z,0
2018-10-16T00:03:18.473Z,0
2018-10-16T00:04:03.772Z,0
2018-10-16T00:05:03.565Z,0
2018-10-16T00:06:04.086Z,0
2018-10-16T00:07:04.142Z,0
2018-10-16T00:08:04.105Z,0
2018-10-16T00:09:03.881Z,0
2018-10-16T00:10:18.546Z,0
2018-10-16T00:11:03.937Z,0
2018-10-16T00:12:03.700Z,0
2018-10-16T00:13:18.852Z,0
2018-10-16T00:14:04.269Z,0
2018-10-16T00:15:18.889Z,0
2018-10-16T00:16:18.922Z,0
2018-10-16T00:17:03.783Z,0
2018-10-16T00:19:03.844Z,0
2018-10-16T00:20:04.345Z,0
2018-10-16T00:21:04.481Z,0
2018-10-16T00:22:04.381Z,0
2018-10-16T00:23:04.434Z,0
2018-10-16T00:24:03.891Z,0
2018-10-16T00:25:04.488Z,0
2018-10-16T00:26:04.238Z,0
2018-10-16T00:27:04.227Z,0
2018-10-16T00:28:04.252Z,0
2018-10-16T00:29:19.180Z,0
2018-10-16T00:30:04.292Z,0
2018-10-16T00:31:18.970Z,0
2018-10-16T00:32:04.053Z,0
2018-10-16T00:33:04.599Z,0
2018-10-16T00:34:04.641Z,0
2018-10-16T00:35:04.399Z,0
2018-10-16T00:36:04.430Z,0
2018-10-16T00:37:04.410Z,0
2018-10-16T00:38:04.460Z,0
2018-10-16T00:39:19.408Z,0
2018-10-16T00:40:04.763Z,0
2018-10-16T00:41:04.225Z,0
2018-10-16T00:42:04.817Z,0
2018-10-16T00:43:04.828Z,0
2018-10-16T00:44:19.456Z,0
2018-10-16T00:45:04.864Z,0
2018-10-16T00:46:19.505Z,0
2018-10-16T00:47:04.901Z,0
2018-10-16T00:49:04.929Z,0
2018-10-16T00:50:04.969Z,0
2018-10-16T00:51:04.678Z,0
2018-10-16T00:52:04.986Z,0
2018-10-16T00:53:04.758Z,0
2018-10-16T00:54:04.778Z,0
2018-10-16T00:55:05.230Z,0
2018-10-16T00:56:05.061Z,0
2018-10-16T00:57:04.540Z,0
2018-10-16T00:58:05.095Z,0
2018-10-16T00:59:04.605Z,0
2018-10-16T01:00:05.164Z,0
2018-10-16T01:01:19.778Z,0
2018-10-16T01:02:19.824Z,0
2018-10-16T01:03:19.548Z,0
2018-10-16T01:04:05.200Z,0
2018-10-16T01:05:19.603Z,0
2018-10-16T01:06:05.256Z,0
2018-10-16T01:07:05.286Z,0
2018-10-16T01:09:05.061Z,0
2018-10-16T01:10:05.054Z,0
2018-10-16T01:11:19.712Z,0
2018-10-16T01:12:04.838Z,0
2018-10-16T01:13:05.090Z,0
2018-10-16T01:14:05.114Z,0
2018-10-16T01:15:05.419Z,0
2018-10-16T01:16:05.447Z,0
2018-10-16T01:17:05.244Z,0
2018-10-16T01:18:05.455Z,0
2018-10-16T01:19:20.144Z,0
2018-10-16T01:20:05.490Z,0
2018-10-16T01:21:05.012Z,0
2018-10-16T01:22:05.270Z,0
2018-10-16T01:23:05.059Z,0
2018-10-16T01:24:05.589Z,0
2018-10-16T01:25:05.595Z,0
2018-10-16T01:26:05.383Z,0
2018-10-16T01:27:04.863Z,0
2018-10-16T01:28:05.393Z,0
2018-10-16T01:29:05.667Z,0
2018-10-16T01:30:05.415Z,0
2018-10-16T01:31:05.520Z,0
2018-10-16T01:32:05.737Z,0
2018-10-16T01:33:05.519Z,0
2018-10-16T01:34:05.750Z,0
2018-10-16T01:35:20.455Z,0
2018-10-16T01:36:05.799Z,0
2018-10-16T01:37:05.835Z,0
2018-10-16T01:38:05.839Z,0
2018-10-16T01:39:05.628Z,0
2018-10-16T01:40:05.373Z,0
2018-10-16T01:41:06.003Z,0
2018-10-16T01:42:05.656Z,0
2018-10-16T01:43:20.573Z,0
2018-10-16T01:44:20.357Z,0
2018-10-16T01:45:05.961Z,0
2018-10-16T01:46:20.664Z,0
2018-10-16T01:47:05.775Z,0
2018-10-16T01:48:20.666Z,0
2018-10-16T01:49:05.799Z,0
2018-10-16T01:50:20.451Z,0
2018-10-16T01:52:06.112Z,0
2018-10-16T01:53:06.128Z,0
2018-10-16T01:54:06.130Z,0
2018-10-16T01:55:06.202Z,0
2018-10-16T01:56:05.666Z,0
2018-10-16T01:57:06.230Z,0
2018-10-16T01:58:05.675Z,0
2018-10-16T01:59:06.272Z,0
2018-10-16T02:00:05.716Z,0
2018-10-16T02:01:06.023Z,0
2018-10-16T02:02:06.297Z,0
2018-10-16T02:03:06.352Z,0
2018-10-16T02:04:05.560Z,0
2018-10-16T02:05:20.986Z,0
2018-10-16T02:06:21.032Z,0
2018-10-16T02:07:06.112Z,0
2018-10-16T02:08:06.432Z,0
2018-10-16T02:09:06.411Z,0
2018-10-16T02:10:06.478Z,0
2018-10-16T02:11:06.475Z,0
2018-10-16T02:13:06.508Z,0
2018-10-16T02:14:06.499Z,0
2018-10-16T02:15:06.038Z,0
2018-10-16T02:16:06.296Z,0
2018-10-16T02:17:06.307Z,0
2018-10-16T02:18:06.463Z,0
2018-10-16T02:19:06.608Z,0
2018-10-16T02:20:06.675Z,0
2018-10-16T02:21:21.295Z,0
2018-10-16T02:22:06.150Z,0
2018-10-16T02:23:21.329Z,0
2018-10-16T02:24:06.687Z,0
2018-10-16T02:25:06.486Z,0
2018-10-16T02:26:06.849Z,0
2018-10-16T02:27:06.530Z,0
2018-10-16T02:28:06.248Z,0
2018-10-16T02:29:06.829Z,0
2018-10-16T02:30:21.452Z,0
2018-10-16T02:32:06.621Z,0
2018-10-16T02:33:06.338Z,0
2018-10-16T02:34:06.655Z,0
2018-10-16T02:35:06.649Z,0
2018-10-16T02:36:21.595Z,0
2018-10-16T02:38:21.638Z,0
2018-10-16T02:39:06.758Z,0
2018-10-16T02:40:21.667Z,0
2018-10-16T02:41:07.071Z,0
2018-10-16T02:42:06.527Z,0
2018-10-16T02:43:06.548Z,0
2018-10-16T02:44:06.817Z,0
2018-10-16T02:45:07.127Z,0
2018-10-16T02:46:07.120Z,0
2018-10-16T02:47:21.885Z,0
2018-10-16T02:48:06.875Z,0
2018-10-16T02:49:06.935Z,0
2018-10-16T02:50:06.924Z,0
2018-10-16T02:51:06.704Z,0
2018-10-16T02:52:07.229Z,0
2018-10-16T02:53:07.042Z,0
2018-10-16T02:54:21.898Z,0
2018-10-16T02:55:21.921Z,0
2018-10-16T02:56:07.074Z,0
2018-10-16T02:57:07.044Z,0
2018-10-16T02:59:07.366Z,0
2018-10-16T03:00:07.108Z,0
2018-10-16T03:01:07.165Z,0
2018-10-16T03:02:21.808Z,0
2018-10-16T03:03:21.534Z,0
2018-10-16T03:04:06.939Z,0
2018-10-16T03:05:22.109Z,0
2018-10-16T03:06:06.972Z,0
2018-10-16T03:07:22.153Z,0
2018-10-16T03:08:07.016Z,0
2018-10-16T03:09:07.342Z,0
2018-10-16T03:11:07.076Z,0
2018-10-16T03:13:07.644Z,0
2018-10-16T03:14:07.420Z,0
2018-10-16T03:15:07.391Z,0
2018-10-16T03:16:22.308Z,0
2018-10-16T03:17:07.451Z,0
2018-10-16T03:18:07.432Z,0
2018-10-16T03:19:07.756Z,0
2018-10-16T03:20:22.472Z,0
2018-10-16T03:21:07.778Z,0
2018-10-16T03:22:07.777Z,0
2018-10-16T03:23:07.520Z,0
2018-10-16T03:24:07.586Z,0
2018-10-16T03:25:22.462Z,0
2018-10-16T03:26:22.253Z,0
2018-10-16T03:28:07.611Z,0
2018-10-16T03:29:07.942Z,0
2018-10-16T03:30:07.688Z,0
2018-10-16T03:31:08.047Z,0
2018-10-16T03:32:07.965Z,0
2018-10-16T03:33:08.015Z,0
2018-10-16T03:34:22.391Z,0
2018-10-16T03:35:07.760Z,0
2018-10-16T03:36:08.029Z,0
2018-10-16T03:37:08.039Z,0
2018-10-16T03:38:08.107Z,0
2018-10-16T03:39:08.098Z,0
2018-10-16T03:40:07.846Z,0
2018-10-16T03:41:22.781Z,0
2018-10-16T03:42:07.878Z,0
2018-10-16T03:43:07.926Z,0
2018-10-16T03:44:08.213Z,0
2018-10-16T03:45:07.938Z,0
2018-10-16T03:46:08.233Z,0
2018-10-16T03:47:07.704Z,0
2018-10-16T03:48:08.345Z,0
2018-10-16T03:49:08.261Z,0
2018-10-16T03:50:08.055Z,0
2018-10-16T03:51:08.304Z,0
2018-10-16T03:52:08.353Z,0
2018-10-16T03:53:08.124Z,0
2018-10-16T03:54:08.356Z,0
2018-10-16T03:55:08.126Z,0
2018-10-16T03:56:23.050Z,0
2018-10-16T03:57:08.236Z,0
2018-10-16T03:58:22.805Z,0
2018-10-16T03:59:08.474Z,0
2018-10-16T04:00:07.933Z,0
2018-10-16T04:01:08.528Z,0
2018-10-16T04:03:08.540Z,0
2018-10-16T04:04:08.043Z,0
2018-10-16T04:05:08.289Z,0
2018-10-16T04:06:08.608Z,0
2018-10-16T04:07:08.082Z,0
2018-10-16T04:08:08.373Z,0
2018-10-16T04:09:23.306Z,0
2018-10-16T04:10:08.384Z,0
2018-10-16T04:11:08.677Z,0
2018-10-16T04:12:08.446Z,0
2018-10-16T04:13:23.371Z,0
2018-10-16T04:14:09.419Z,0
2018-10-16T04:15:08.744Z,0
2018-10-16T04:16:08.767Z,0
2018-10-16T04:17:08.505Z,0
2018-10-16T04:18:08.256Z,0
2018-10-16T04:19:08.779Z,0
2018-10-16T04:20:08.832Z,0
2018-10-16T04:21:08.833Z,0
2018-10-16T04:22:08.638Z,0
2018-10-16T04:23:08.702Z,0
2018-10-16T04:24:23.518Z,0
2018-10-16T04:25:09.023Z,0
2018-10-16T04:26:08.903Z,0
2018-10-16T04:27:08.958Z,0
2018-10-16T04:28:08.679Z,0
2018-10-16T04:29:24.028Z,0
2018-10-16T04:30:08.704Z,0
2018-10-16T04:31:08.738Z,0
2018-10-16T04:32:08.512Z,0
2018-10-16T04:33:09.052Z,0
2018-10-16T04:34:09.046Z,0
2018-10-16T04:35:08.830Z,0
2018-10-16T04:36:08.838Z,0
2018-10-16T04:37:09.141Z,0
2018-10-16T04:38:09.106Z,0
2018-10-16T04:39:08.903Z,0
2018-10-16T04:40:08.375Z,0
2018-10-16T04:41:08.937Z,0
2018-10-16T04:42:08.923Z,0
2018-10-16T04:43:08.987Z,0
2018-10-16T04:44:09.267Z,0
2018-10-16T04:45:23.899Z,0
2018-10-16T04:46:23.414Z,0
2018-10-16T04:47:08.759Z,0
2018-10-16T04:48:09.059Z,0
2018-10-16T04:49:09.339Z,0
2018-10-16T04:50:09.080Z,0
2018-10-16T04:51:09.100Z,0
2018-10-16T04:52:09.137Z,0
2018-10-16T04:53:24.057Z,0
2018-10-16T04:54:09.177Z,0
2018-10-16T04:55:09.425Z,0
2018-10-16T04:56:09.576Z,4
2018-10-16T04:57:09.454Z,4
2018-10-16T04:58:24.162Z,0
2018-10-16T04:59:09.501Z,0
2018-10-16T05:00:09.032Z,4
2018-10-16T05:01:38.846Z,4
2018-10-16T05:02:23.975Z,4
2018-10-16T05:03:09.565Z,4
2018-10-16T05:04:10.082Z,8
2018-10-16T05:05:09.099Z,4
2018-10-16T05:06:09.650Z,8
2018-10-16T05:07:09.387Z,8
2018-10-16T05:08:09.403Z,12
2018-10-16T05:09:09.436Z,16
2018-10-16T05:10:09.722Z,16
2018-10-16T05:11:09.751Z,20
2018-10-16T05:12:09.727Z,24
2018-10-16T05:13:09.827Z,24
2018-10-16T05:14:09.764Z,32
2018-10-16T05:15:09.555Z,36
2018-10-16T05:16:24.473Z,44
2018-10-16T05:17:09.868Z,44
2018-10-16T05:18:09.675Z,52
2018-10-16T05:19:10.184Z,60
2018-10-16T05:20:09.417Z,68
2018-10-16T05:21:09.629Z,76
2018-10-16T05:22:09.684Z,88
2018-10-16T05:24:09.991Z,108
2018-10-16T05:25:09.556Z,120
2018-10-16T05:26:09.773Z,132
2018-10-16T05:27:10.077Z,144
2018-10-16T05:28:24.702Z,164
2018-10-16T05:29:09.799Z,180
2018-10-16T05:30:09.804Z,196
2018-10-16T05:31:10.292Z,216
2018-10-16T05:32:10.147Z,232
2018-10-16T05:33:09.856Z,252
2018-10-16T05:34:10.171Z,280
2018-10-16T05:35:09.902Z,304
2018-10-16T05:36:09.950Z,336
2018-10-16T05:37:09.922Z,372
2018-10-16T05:38:09.795Z,412
2018-10-16T05:39:10.269Z,452
2018-10-16T05:40:10.279Z,504
2018-10-16T05:41:10.294Z,556
2018-10-16T05:42:24.934Z,636
2018-10-16T05:43:10.057Z,692
2018-10-16T05:44:10.322Z,784
2018-10-16T05:45:10.373Z,880
2018-10-16T05:46:10.349Z,984
2018-10-16T05:47:10.168Z,1108
2018-10-16T05:48:25.055Z,1264
2018-10-16T05:49:10.443Z,1356
2018-10-16T05:50:10.160Z,1464
2018-10-16T05:51:10.192Z,1544
2018-10-16T05:52:10.271Z,1612
2018-10-16T05:53:10.508Z,1672
2018-10-16T05:54:10.669Z,1716
2018-10-16T05:55:25.218Z,1784
2018-10-16T05:56:10.274Z,1836
2018-10-16T05:57:10.069Z,1920
2018-10-16T05:58:10.326Z,2024
2018-10-16T06:00:10.403Z,2468
2018-10-16T06:01:10.625Z,3004
2018-10-16T06:02:10.685Z,3564
2018-10-16T06:03:10.656Z,4144
2018-10-16T06:04:25.106Z,4452
2018-10-16T06:05:10.478Z,4636
2018-10-16T06:06:25.376Z,5140
2018-10-16T06:07:10.774Z,5528
2018-10-16T06:08:10.754Z,5912
2018-10-16T06:09:10.820Z,6328
2018-10-16T06:10:10.791Z,6724
2018-10-16T06:11:10.854Z,7112
2018-10-16T06:12:10.707Z,7564
2018-10-16T06:13:10.629Z,7744
2018-10-16T06:14:25.308Z,8440
2018-10-16T06:15:10.373Z,8772
2018-10-16T06:17:10.947Z,9780
2018-10-16T06:18:10.728Z,9772
2018-10-16T06:19:25.625Z,10004
2018-10-16T06:20:25.676Z,9624
2018-10-16T06:21:11.010Z,9296
2018-10-16T06:22:10.809Z,10172
2018-10-16T06:23:12.515Z,11712
2018-10-16T06:24:11.134Z,12096
2018-10-16T06:25:10.570Z,12352
2018-10-16T06:26:11.144Z,13184
2018-10-16T06:27:10.883Z,13280
2018-10-16T06:28:10.663Z,13632
2018-10-16T06:29:11.168Z,14176
2018-10-16T06:30:11.472Z,14592
2018-10-16T06:31:25.610Z,15136
2018-10-16T06:32:10.989Z,15552
2018-10-16T06:33:11.397Z,15872
2018-10-16T06:34:11.325Z,16768
2018-10-16T06:35:11.080Z,16256
2018-10-16T06:36:25.994Z,16736
2018-10-16T06:37:11.385Z,17760
2018-10-16T06:38:11.354Z,18144
2018-10-16T06:39:11.412Z,17408
2018-10-16T06:40:11.403Z,17888
2018-10-16T06:42:26.137Z,19808
2018-10-16T06:43:11.484Z,21536
2018-10-16T06:44:11.525Z,22304
2018-10-16T06:45:11.621Z,21824
2018-10-16T06:46:11.321Z,22432
2018-10-16T06:47:11.734Z,22912
2018-10-16T06:48:12.789Z,23296
2018-10-16T06:49:11.635Z,24352
2018-10-16T06:50:11.633Z,25024
2018-10-16T06:51:26.337Z,24128
2018-10-16T06:53:11.909Z,26048
2018-10-16T06:54:11.739Z,26368
2018-10-16T06:55:12.058Z,26112
2018-10-16T06:56:11.546Z,25728
2018-10-16T06:57:11.785Z,26880
2018-10-16T06:58:11.690Z,27904
2018-10-16T06:59:11.844Z,27648
2018-10-16T07:00:11.486Z,27488
2018-10-16T07:01:11.730Z,27680
2018-10-16T07:02:11.919Z,28128
2018-10-16T07:03:11.680Z,28928
2018-10-16T07:05:12.017Z,27872
2018-10-16T07:06:11.998Z,29056
2018-10-16T07:07:12.981Z,29984
2018-10-16T07:08:11.784Z,29408
2018-10-16T07:09:12.121Z,28928
2018-10-16T07:10:11.848Z,29632
2018-10-16T07:11:11.891Z,29952
2018-10-16T07:12:12.145Z,29984
2018-10-16T07:13:12.196Z,30048
2018-10-16T07:14:12.200Z,30432
2018-10-16T07:15:12.787Z,30464
2018-10-16T07:16:26.912Z,31648
2018-10-16T07:17:12.264Z,31456
2018-10-16T07:19:12.343Z,31712
2018-10-16T07:20:12.061Z,31296
2018-10-16T07:21:12.354Z,32128
2018-10-16T07:22:12.382Z,32608
2018-10-16T07:23:27.584Z,32960
2018-10-16T07:24:12.162Z,33120
2018-10-16T07:25:12.194Z,32960
2018-10-16T07:26:27.148Z,32128
2018-10-16T07:27:12.507Z,31872
2018-10-16T07:28:12.556Z,31680
2018-10-16T07:29:12.564Z,32768
2018-10-16T07:30:27.281Z,27520
2018-10-16T07:31:12.346Z,23424
2018-10-16T07:32:12.351Z,20928
2018-10-16T07:34:12.665Z,20896
2018-10-16T07:35:12.732Z,22176
2018-10-16T07:36:12.695Z,23328
2018-10-16T07:37:12.492Z,24416
2018-10-16T07:38:13.551Z,26912
2018-10-16T07:39:27.187Z,28224
2018-10-16T07:40:12.817Z,29344
2018-10-16T07:42:12.579Z,30464
2018-10-16T07:43:12.939Z,31104
2018-10-16T07:44:12.370Z,30176
2018-10-16T07:46:12.697Z,31520
2018-10-16T07:47:12.756Z,31360
2018-10-16T07:48:12.996Z,31264
2018-10-16T07:49:27.451Z,30304
2018-10-16T07:50:13.067Z,30464
2018-10-16T07:51:13.076Z,30464
2018-10-16T07:53:13.129Z,29568
2018-10-16T07:54:12.635Z,29952
2018-10-16T07:55:27.857Z,30560
2018-10-16T07:56:27.823Z,32128
2018-10-16T07:57:28.153Z,31584
2018-10-16T07:58:13.218Z,30176
2018-10-16T08:00:13.298Z,31104
2018-10-16T08:01:12.810Z,31328
2018-10-16T08:02:13.332Z,30784
2018-10-16T08:03:13.347Z,29408
2018-10-16T08:04:12.870Z,29952
2018-10-16T08:05:13.165Z,31040
2018-10-16T08:06:12.915Z,31616
2018-10-16T08:07:12.908Z,31328
2018-10-16T08:08:13.222Z,30752
2018-10-16T08:09:13.227Z,30688
2018-10-16T08:10:13.604Z,31328
2018-10-16T08:11:28.570Z,31296
2018-10-16T08:12:13.563Z,30880
2018-10-16T08:13:13.582Z,30304
2018-10-16T08:14:13.091Z,29408
2018-10-16T08:15:28.031Z,28192
2018-10-16T08:17:13.657Z,28384
2018-10-16T08:19:13.455Z,27456
2018-10-16T08:20:13.745Z,27040
2018-10-16T08:21:13.518Z,27136
2018-10-16T08:22:13.808Z,27200
2018-10-16T08:23:13.811Z,27584
2018-10-16T08:24:13.338Z,28640
2018-10-16T08:25:13.866Z,28800
2018-10-16T08:26:28.574Z,26144
2018-10-16T08:27:13.668Z,25056
2018-10-16T08:28:13.950Z,24928
2018-10-16T08:29:13.947Z,25184
2018-10-16T08:30:14.007Z,24352
2018-10-16T08:31:13.764Z,24320
2018-10-16T08:32:14.097Z,24064
2018-10-16T08:33:13.564Z,23776
2018-10-16T08:34:14.073Z,24000
2018-10-16T08:35:14.232Z,24544
2018-10-16T08:36:14.800Z,25376
2018-10-16T08:37:14.367Z,25312
2018-10-16T08:38:14.305Z,26208
2018-10-16T08:39:13.933Z,23552
2018-10-16T08:40:13.703Z,20992
2018-10-16T08:41:14.242Z,21280
2018-10-16T08:42:13.774Z,21696
2018-10-16T08:43:13.842Z,22048
2018-10-16T08:44:14.321Z,23808
2018-10-16T08:45:14.684Z,25568
2018-10-16T08:46:13.833Z,25856
2018-10-16T08:47:14.453Z,26048
2018-10-16T08:48:14.171Z,25792
2018-10-16T08:49:14.472Z,25824
2018-10-16T08:50:14.445Z,25248
2018-10-16T08:51:14.505Z,26176
2018-10-16T08:52:14.234Z,24768
2018-10-16T08:53:14.551Z,24960
2018-10-16T08:54:14.285Z,26048
2018-10-16T08:55:14.907Z,24832
2018-10-16T08:56:14.730Z,24576
2018-10-16T08:57:14.628Z,24704
2018-10-16T08:58:29.309Z,23904
2018-10-16T08:59:14.659Z,23680
2018-10-16T09:00:14.731Z,23488
2018-10-16T09:02:14.507Z,23392
2018-10-16T09:03:14.515Z,22272
2018-10-16T09:04:14.798Z,21792
2018-10-16T09:05:14.904Z,21856
2018-10-16T09:06:29.525Z,20480
2018-10-16T09:07:29.512Z,20160
2018-10-16T09:08:14.924Z,20544
2018-10-16T09:09:14.904Z,20224
2018-10-16T09:10:14.689Z,19648
2018-10-16T09:11:14.946Z,19424
2018-10-16T09:13:15.373Z,18752
2018-10-16T09:14:29.936Z,18400
2018-10-16T09:15:14.825Z,18144
2018-10-16T09:16:15.071Z,18048
2018-10-16T09:18:15.115Z,17856
2018-10-16T09:19:14.921Z,17760
2018-10-16T09:20:14.941Z,17632
2018-10-16T09:21:15.221Z,17600
2018-10-16T09:22:14.955Z,17408
2018-10-16T09:23:14.983Z,17152
2018-10-16T09:24:15.025Z,17120
2018-10-16T09:25:15.778Z,17056
2018-10-16T09:27:15.080Z,16864
2018-10-16T09:28:15.136Z,16640
2018-10-16T09:29:15.402Z,16768
2018-10-16T09:30:30.078Z,16832
2018-10-16T09:31:15.980Z,16896
2018-10-16T09:32:15.465Z,16704
2018-10-16T09:33:15.234Z,16608
2018-10-16T09:34:15.538Z,16608
2018-10-16T09:35:15.553Z,16512
2018-10-16T09:36:14.922Z,16384
2018-10-16T09:37:15.578Z,16224
2018-10-16T09:38:16.082Z,16000
2018-10-16T09:39:15.372Z,15640
2018-10-16T09:40:15.691Z,15516
2018-10-16T09:41:15.678Z,15328
2018-10-16T09:42:15.748Z,15216
2018-10-16T09:43:15.497Z,15200
2018-10-16T09:44:15.791Z,15204
2018-10-16T09:45:30.442Z,15064
2018-10-16T09:46:30.462Z,14832
2018-10-16T09:47:15.594Z,14784
2018-10-16T09:49:15.920Z,14308
2018-10-16T09:50:15.944Z,14172
2018-10-16T09:51:15.927Z,13980
2018-10-16T09:52:15.978Z,13688
2018-10-16T09:53:30.636Z,13272
2018-10-16T09:54:16.028Z,10296
2018-10-16T09:55:15.770Z,11156
2018-10-16T09:56:15.829Z,7120
2018-10-16T09:57:30.743Z,6584
2018-10-16T09:58:15.864Z,7880
2018-10-16T09:59:15.898Z,10280
2018-10-16T10:00:15.928Z,12304
2018-10-16T10:01:30.832Z,11700
2018-10-16T10:02:16.237Z,8864
2018-10-16T10:03:30.887Z,8072
2018-10-16T10:04:16.277Z,9064
2018-10-16T10:05:16.280Z,7592
2018-10-16T10:06:16.341Z,9692
2018-10-16T10:08:16.353Z,5672
2018-10-16T10:09:16.132Z,5800
2018-10-16T10:10:16.162Z,6396
2018-10-16T10:11:16.634Z,7336
2018-10-16T10:12:16.487Z,6484
2018-10-16T10:14:16.494Z,7280
2018-10-16T10:15:16.542Z,6112
2018-10-16T10:16:16.307Z,6312
2018-10-16T10:17:16.610Z,5748
2018-10-16T10:18:16.075Z,5616
2018-10-16T10:19:16.661Z,5904
2018-10-16T10:20:16.379Z,5596
2018-10-16T10:21:16.175Z,5788
2018-10-16T10:22:16.685Z,7696
2018-10-16T10:23:16.914Z,6524
2018-10-16T10:25:16.884Z,6720
2018-10-16T10:26:16.564Z,7176
2018-10-16T10:27:16.848Z,7168
2018-10-16T10:28:16.849Z,6980
2018-10-16T10:29:16.864Z,7040
2018-10-16T10:30:16.883Z,6964
2018-10-16T10:32:16.923Z,6804
2018-10-16T10:33:31.648Z,6692
2018-10-16T10:34:17.009Z,6604
2018-10-16T10:35:16.764Z,6568
2018-10-16T10:36:16.509Z,6536
2018-10-16T10:37:16.780Z,6496
2018-10-16T10:38:17.114Z,6464
2018-10-16T10:39:17.104Z,6420
2018-10-16T10:40:16.888Z,6388
2018-10-16T10:41:16.874Z,6360
2018-10-16T10:42:17.230Z,6344
2018-10-16T10:43:17.183Z,6336
2018-10-16T10:44:16.976Z,6332
2018-10-16T10:45:16.967Z,6324
2018-10-16T10:46:17.307Z,6304
2018-10-16T10:47:17.041Z,6296
2018-10-16T10:48:16.807Z,6300
2018-10-16T10:49:31.734Z,6316
2018-10-16T10:50:18.211Z,6336
2018-10-16T10:51:19.715Z,6372
2018-10-16T10:52:17.175Z,6424
2018-10-16T10:54:17.475Z,6576
2018-10-16T10:55:17.465Z,6636
2018-10-16T10:56:17.530Z,6684
2018-10-16T10:57:17.856Z,6724
2018-10-16T10:58:17.569Z,6800
2018-10-16T10:59:17.557Z,6896
2018-10-16T11:00:32.247Z,7052
2018-10-16T11:01:17.646Z,7156
2018-10-16T11:02:17.649Z,7320
2018-10-16T11:03:32.480Z,7532
2018-10-16T11:04:17.430Z,7688
2018-10-16T11:05:32.394Z,7900
2018-10-16T11:06:17.723Z,8012
2018-10-16T11:07:17.487Z,8196
2018-10-16T11:08:32.463Z,8424
2018-10-16T11:09:32.914Z,8580
2018-10-16T11:10:17.600Z,8672
2018-10-16T11:11:17.879Z,8664
2018-10-16T11:12:17.896Z,8780
2018-10-16T11:13:17.639Z,8784
2018-10-16T11:14:32.570Z,8728
2018-10-16T11:15:32.511Z,8604
2018-10-16T11:16:17.440Z,8532
2018-10-16T11:17:18.022Z,8424
2018-10-16T11:18:18.011Z,8340
2018-10-16T11:19:17.946Z,8328
2018-10-16T11:20:18.091Z,8068
2018-10-16T11:21:32.780Z,7872
2018-10-16T11:22:18.103Z,7928
2018-10-16T11:23:18.174Z,8060
2018-10-16T11:24:18.157Z,8168
2018-10-16T11:25:18.294Z,8184
2018-10-16T11:26:18.199Z,8312
2018-10-16T11:27:18.660Z,8540
2018-10-16T11:28:18.275Z,8332
2018-10-16T11:29:18.302Z,7976
2018-10-16T11:30:18.870Z,7724
2018-10-16T11:31:32.978Z,7556
2018-10-16T11:32:33.034Z,7432
2018-10-16T11:33:18.965Z,7288
2018-10-16T11:34:32.821Z,7152
2018-10-16T11:35:18.454Z,7088
2018-10-16T11:36:33.111Z,7028
2018-10-16T11:37:18.233Z,7008
2018-10-16T11:38:32.893Z,6972
2018-10-16T11:39:33.291Z,6932
2018-10-16T11:40:18.314Z,6888
2018-10-16T11:41:18.597Z,6840
2018-10-16T11:42:33.276Z,6760
2018-10-16T11:43:18.616Z,6712
2018-10-16T11:44:18.875Z,6644
2018-10-16T11:45:33.453Z,6532
2018-10-16T11:46:18.727Z,6452
2018-10-16T11:47:18.727Z,6352
2018-10-16T11:48:18.748Z,6248
2018-10-16T11:49:18.758Z,6176
2018-10-16T11:52:19.588Z,5972
2018-10-16T11:53:18.898Z,5940
2018-10-16T11:54:18.882Z,5912
2018-10-16T11:55:18.940Z,5908
2018-10-16T11:56:18.918Z,5916
2018-10-16T11:57:18.984Z,5924
2018-10-16T11:58:33.644Z,5920
2018-10-16T11:59:19.120Z,5908
2018-10-16T12:00:18.769Z,5912
2018-10-16T12:01:18.814Z,5916
2018-10-16T12:02:34.134Z,5928
2018-10-16T12:04:18.877Z,5868
2018-10-16T12:05:33.570Z,5748
2018-10-16T12:06:19.528Z,5672
2018-10-16T12:07:19.868Z,5576
2018-10-16T12:08:33.903Z,5436
2018-10-16T12:09:19.310Z,5356
2018-10-16T12:10:19.052Z,5268
2018-10-16T12:11:19.820Z,5204
2018-10-16T12:12:34.004Z,5172
2018-10-16T12:13:19.750Z,5156
2018-10-16T12:14:19.391Z,5148
2018-10-16T12:15:19.418Z,5140
2018-10-16T12:16:19.419Z,5156
2018-10-16T12:17:19.429Z,5168
2018-10-16T12:18:19.618Z,5184
2018-10-16T12:19:19.721Z,5208
2018-10-16T12:20:19.551Z,5240
2018-10-16T12:21:19.947Z,5268
2018-10-16T12:22:19.327Z,5316
2018-10-16T12:23:19.316Z,5364
2018-10-16T12:24:34.020Z,5408
2018-10-16T12:25:20.344Z,5440
2018-10-16T12:26:19.697Z,5468
2018-10-16T12:27:19.999Z,5468
2018-10-16T12:28:19.760Z,5456
2018-10-16T12:29:19.214Z,5452
2018-10-16T12:31:20.181Z,5452
2018-10-16T12:32:20.322Z,5488
2018-10-16T12:34:19.622Z,5568
2018-10-16T12:35:34.552Z,5616
2018-10-16T12:36:19.907Z,5644
2018-10-16T12:37:20.082Z,5688
2018-10-16T12:38:19.831Z,5744
2018-10-16T12:39:20.523Z,5800
2018-10-16T12:40:34.813Z,5880
2018-10-16T12:41:20.695Z,5932
2018-10-16T12:42:20.646Z,6008
2018-10-16T12:43:20.613Z,6072
2018-10-16T12:44:20.112Z,6116
2018-10-16T12:45:20.050Z,6136
2018-10-16T12:46:20.042Z,6156
2018-10-16T12:47:20.437Z,6176
2018-10-16T12:49:20.224Z,6264
2018-10-16T12:50:20.528Z,6324
2018-10-16T12:51:20.244Z,6232
2018-10-16T12:52:34.712Z,6164
2018-10-16T12:53:20.603Z,6128
2018-10-16T12:54:20.571Z,6100
2018-10-16T12:55:20.105Z,6032
2018-10-16T12:56:35.146Z,5988
2018-10-16T12:57:20.809Z,6804
2018-10-16T12:59:20.122Z,6288
2018-10-16T13:00:20.376Z,5900
2018-10-16T13:01:20.536Z,5848
2018-10-16T13:02:20.469Z,5708
2018-10-16T13:03:20.197Z,5600
2018-10-16T13:04:20.590Z,5484
2018-10-16T13:05:21.033Z,5376
2018-10-16T13:06:20.360Z,5260
2018-10-16T13:07:20.414Z,5144
2018-10-16T13:08:20.875Z,5032
2018-10-16T13:09:20.886Z,4956
2018-10-16T13:10:20.455Z,4896
2018-10-16T13:11:35.428Z,4840
2018-10-16T13:12:20.778Z,4832
2018-10-16T13:13:20.878Z,4828
2018-10-16T13:14:21.003Z,4800
2018-10-16T13:15:20.801Z,4736
2018-10-16T13:16:21.133Z,4596
2018-10-16T13:17:21.324Z,4464
2018-10-16T13:18:20.918Z,4360
2018-10-16T13:19:20.973Z,4284
2018-10-16T13:20:35.913Z,4208
2018-10-16T13:21:20.723Z,4160
2018-10-16T13:22:20.516Z,4080
2018-10-16T13:23:21.451Z,4000
2018-10-16T13:24:20.815Z,3916
2018-10-16T13:26:21.279Z,3744
2018-10-16T13:27:35.820Z,3632
2018-10-16T13:28:21.215Z,3576
2018-10-16T13:29:21.159Z,3520
2018-10-16T13:30:21.249Z,3472
2018-10-16T13:31:21.261Z,3432
2018-10-16T13:32:21.442Z,3400
2018-10-16T13:33:21.080Z,3372
2018-10-16T13:34:21.644Z,3360
2018-10-16T13:35:36.176Z,3368
2018-10-16T13:36:21.386Z,3400
2018-10-16T13:38:21.348Z,3424
2018-10-16T13:39:21.440Z,3444
2018-10-16T13:40:21.640Z,3508
2018-10-16T13:41:21.551Z,3680
2018-10-16T13:42:21.696Z,3944
2018-10-16T13:43:35.936Z,4220
2018-10-16T13:44:21.757Z,4432
2018-10-16T13:45:21.324Z,4516
2018-10-16T13:46:22.000Z,4472
2018-10-16T13:47:21.609Z,4436
2018-10-16T13:48:21.654Z,4368
2018-10-16T13:49:21.430Z,4312
2018-10-16T13:50:21.632Z,4364
2018-10-16T13:51:21.704Z,4232
2018-10-16T13:52:21.898Z,4248
2018-10-16T13:53:21.746Z,4368
2018-10-16T13:54:21.818Z,4408
2018-10-16T13:55:21.803Z,4408
2018-10-16T13:56:22.009Z,4392
2018-10-16T13:57:21.853Z,4372
2018-10-16T13:58:21.914Z,4352
2018-10-16T13:59:36.292Z,4336
2018-10-16T14:00:21.952Z,4320
2018-10-16T14:01:21.952Z,4304
2018-10-16T14:02:22.159Z,4284
2018-10-16T14:03:21.987Z,4256
2018-10-16T14:04:22.292Z,4236
2018-10-16T14:06:21.841Z,4228
2018-10-16T14:07:22.095Z,4216
2018-10-16T14:08:23.008Z,4204
2018-10-16T14:09:22.130Z,4192
2018-10-16T14:10:22.075Z,4180
2018-10-16T14:11:26.895Z,4156
2018-10-16T14:13:22.320Z,4104
2018-10-16T14:14:22.317Z,4080
2018-10-16T14:15:36.962Z,4048
2018-10-16T14:16:22.640Z,4028
2018-10-16T14:17:22.337Z,4000
2018-10-16T14:18:22.102Z,3968
2018-10-16T14:19:37.045Z,3940
2018-10-16T14:20:37.284Z,3916
2018-10-16T14:21:22.430Z,3892
2018-10-16T14:22:22.767Z,3872
2018-10-16T14:23:22.469Z,3844
2018-10-16T14:24:37.151Z,3808
2018-10-16T14:25:36.937Z,3776
2018-10-16T14:26:22.607Z,3756
2018-10-16T14:27:22.582Z,3728
2018-10-16T14:28:22.830Z,3696
2018-10-16T14:29:22.352Z,3668
2018-10-16T14:30:22.422Z,3644